Aviation Digital Data Service (ADDS)

Output produced by METARs form (0531 UTC 20 September 2017)
found at http://www.aviationweather.gov/adds/metars/
 
GCLP 200500Z 01014KT 9999 BKN018 22/19 Q1019 NOSIG
TAF GCLP 200200Z 2003/2103 01017KT 9999 FEW020 TX26/2014Z TN21/2007Z 
     PROB30 
     TEMPO 2021/2103 01020G32KT
       
EGTE 200520Z 22004KT 9999 FEW020 BKN045 12/11 Q1019
TAF EGTE 191957Z 1921/2006 21006KT 9999 SCT030
       
EGGD 200520Z AUTO 20006KT 9999 OVC037 12/10 Q1019
TAF EGGD 200454Z 2006/2106 23010KT 9999 BKN030 
     TEMPO 2006/2008 6000 
     PROB30 
     TEMPO 2006/2016 BKN010 
     BECMG 2008/2011 20015G25KT 
     PROB30 
     TEMPO 2016/2106 6000 -RA BKN010